createdAt,value
2022-12-16T00:01:15.617Z,29.40
2022-12-16T00:03:48.217Z,28.02
2022-12-16T00:06:16.426Z,26.48
2022-12-16T00:08:44.225Z,27.65
2022-12-16T00:11:12.278Z,27.52
2022-12-16T00:13:41.361Z,25.92
2022-12-16T00:16:11.457Z,27.75
2022-12-16T00:18:39.821Z,29.02
2022-12-16T00:21:09.595Z,27.83
2022-12-16T00:23:41.899Z,28.40
2022-12-16T00:26:10.451Z,27.45
2022-12-16T00:28:38.808Z,27.75
2022-12-16T00:31:07.536Z,28.40
2022-12-16T00:33:35.839Z,27.75
2022-12-16T00:36:04.036Z,28.58
2022-12-16T00:38:33.248Z,26.92
2022-12-16T00:41:01.047Z,27.10
2022-12-16T00:43:28.984Z,27.73
2022-12-16T00:45:56.944Z,26.98
2022-12-16T00:48:25.621Z,27.55
2022-12-16T00:50:55.491Z,28.17
2022-12-16T00:53:25.433Z,27.25
2022-12-16T00:56:02.812Z,28.38
2022-12-16T00:58:30.639Z,26.73
2022-12-16T01:00:58.758Z,27.90
2022-12-16T01:03:27.015Z,28.15
2022-12-16T01:05:54.854Z,27.00
2022-12-16T01:08:24.108Z,26.48
2022-12-16T01:10:52.987Z,27.75
2022-12-16T01:13:25.998Z,27.80
2022-12-16T01:15:54.101Z,26.73
2022-12-16T01:18:22.335Z,28.40
2022-12-16T01:20:50.133Z,25.42
2022-12-16T01:23:18.604Z,26.88
2022-12-16T01:25:46.423Z,26.10
2022-12-16T01:28:14.154Z,27.33
2022-12-16T01:30:43.262Z,27.05
2022-12-16T01:33:11.170Z,25.77
2022-12-16T01:35:55.936Z,26.33
2022-12-16T01:38:24.317Z,25.50
2022-12-16T01:40:52.699Z,26.98
2022-12-16T01:43:26.339Z,26.27
2022-12-16T01:45:59.576Z,27.50
2022-12-16T01:48:37.110Z,26.65
2022-12-16T01:51:09.279Z,28.20
2022-12-16T01:53:39.260Z,26.17
2022-12-16T01:56:07.764Z,25.65
2022-12-16T01:58:40.433Z,25.77
2022-12-16T02:01:10.083Z,24.02
2022-12-16T02:03:38.393Z,25.35
2022-12-16T02:06:08.076Z,25.63
2022-12-16T02:08:36.653Z,24.52
2022-12-16T02:11:29.531Z,24.27
2022-12-16T02:14:22.011Z,24.98
2022-12-16T02:16:57.750Z,24.40
2022-12-16T02:19:58.833Z,23.73
2022-12-16T02:22:37.951Z,24.38
2022-12-16T02:25:38.276Z,24.65
2022-12-16T02:28:11.478Z,23.23
2022-12-16T02:31:08.688Z,24.02
2022-12-16T02:33:49.546Z,23.92
2022-12-16T02:36:26.677Z,25.00
2022-12-16T02:39:00.329Z,22.60
2022-12-16T02:41:35.950Z,24.15
2022-12-16T02:44:07.442Z,23.15
2022-12-16T02:46:42.871Z,25.20
2022-12-16T02:49:45.132Z,25.33
2022-12-16T02:52:14.363Z,24.50
2022-12-16T02:54:43.121Z,26.33
2022-12-16T02:57:24.402Z,24.92
2022-12-16T03:00:03.321Z,24.87
2022-12-16T03:02:39.563Z,25.95
2022-12-16T03:05:11.630Z,28.98
2022-12-16T03:10:13.173Z,26.85
2022-12-16T03:12:44.676Z,28.05
2022-12-16T03:15:16.731Z,26.65
2022-12-16T03:17:49.256Z,30.58
2022-12-16T03:20:23.273Z,28.73
2022-12-16T03:22:55.538Z,31.58
2022-12-16T03:25:24.642Z,28.83
2022-12-16T03:27:59.945Z,30.45
2022-12-16T03:30:32.629Z,31.27
2022-12-16T03:33:05.719Z,30.17
2022-12-16T03:35:38.093Z,30.38
2022-12-16T03:38:08.069Z,29.17
2022-12-16T03:40:38.646Z,30.20
2022-12-16T03:43:07.940Z,30.00
2022-12-16T03:45:39.501Z,31.92
2022-12-16T03:48:10.727Z,31.17
2022-12-16T03:50:40.631Z,31.23
2022-12-16T03:53:10.002Z,30.05
2022-12-16T03:55:37.774Z,29.27
2022-12-16T03:58:05.589Z,30.63
2022-12-16T04:00:33.697Z,31.42
2022-12-16T04:03:01.688Z,31.23
2022-12-16T04:05:30.970Z,30.60
2022-12-16T04:08:01.736Z,32.83
2022-12-16T04:10:44.202Z,32.53
2022-12-16T04:13:30.099Z,34.20
2022-12-16T04:16:15.746Z,33.47
2022-12-16T04:19:01.377Z,34.10
2022-12-16T04:21:47.978Z,33.47
2022-12-16T04:24:24.007Z,35.60
2022-12-16T04:27:15.347Z,35.40
2022-12-16T04:29:57.785Z,34.80
2022-12-16T04:32:26.023Z,35.78
2022-12-16T04:34:53.528Z,34.28
2022-12-16T04:37:40.301Z,35.22
2022-12-16T04:40:26.522Z,33.28
2022-12-16T04:43:11.865Z,33.67
2022-12-16T04:46:11.954Z,34.80
2022-12-16T04:48:57.149Z,31.52
2022-12-16T04:51:42.557Z,31.90
2022-12-16T04:54:29.012Z,31.58
2022-12-16T04:57:16.805Z,32.28
2022-12-16T05:00:02.062Z,31.00
2022-12-16T05:02:47.489Z,31.83
2022-12-16T05:05:32.755Z,31.42
2022-12-16T05:08:17.914Z,32.35
2022-12-16T05:11:04.564Z,31.10
2022-12-16T05:13:49.828Z,31.13
2022-12-16T05:16:35.257Z,31.40
2022-12-16T05:19:31.453Z,30.30
2022-12-16T05:22:17.233Z,28.02
2022-12-16T05:25:02.588Z,29.73
2022-12-16T05:27:49.277Z,29.25
2022-12-16T05:30:34.613Z,27.17
2022-12-16T05:33:19.968Z,28.00
2022-12-16T05:36:05.265Z,28.67
2022-12-16T05:38:50.557Z,29.08
2022-12-16T05:41:35.947Z,29.38
2022-12-16T05:44:23.030Z,28.50
2022-12-16T05:47:08.304Z,28.33
2022-12-16T05:49:53.423Z,25.85
2022-12-16T05:52:39.235Z,28.73
2022-12-16T05:55:27.890Z,27.92
2022-12-16T05:58:17.466Z,28.65
2022-12-16T06:01:04.360Z,27.48
2022-12-16T06:03:49.841Z,28.30
2022-12-16T06:06:35.350Z,28.60
2022-12-16T06:09:20.608Z,26.10
2022-12-16T06:12:05.860Z,26.58
2022-12-16T06:14:51.175Z,28.23
2022-12-16T06:17:37.621Z,25.98
2022-12-16T06:20:23.892Z,27.80
2022-12-16T06:23:10.732Z,27.23
2022-12-16T06:25:55.964Z,28.40
2022-12-16T06:28:45.771Z,27.77
2022-12-16T06:31:31.691Z,28.92
2022-12-16T06:34:18.703Z,29.08
2022-12-16T06:37:03.927Z,29.23
2022-12-16T06:39:52.970Z,28.10
2022-12-16T06:42:38.602Z,29.73
2022-12-16T06:45:26.973Z,28.50
2022-12-16T06:48:15.435Z,29.92
2022-12-16T06:51:02.261Z,29.98
2022-12-16T06:53:47.385Z,29.17
2022-12-16T06:56:32.794Z,30.27
2022-12-16T06:59:18.089Z,29.17
2022-12-16T07:02:04.009Z,28.58
2022-12-16T07:04:49.364Z,29.42
2022-12-16T07:07:36.025Z,28.55
2022-12-16T07:10:21.436Z,29.65
2022-12-16T07:13:06.644Z,29.17
2022-12-16T07:15:51.923Z,28.17
2022-12-16T07:18:37.424Z,29.15
2022-12-16T07:21:23.016Z,29.17
2022-12-16T07:24:09.711Z,28.27
2022-12-16T07:26:55.087Z,29.05
2022-12-16T07:29:36.816Z,28.67
2022-12-16T07:32:21.989Z,29.40
2022-12-16T07:35:07.147Z,30.05
2022-12-16T07:37:52.655Z,28.73
2022-12-16T07:40:39.268Z,29.17
2022-12-16T07:43:24.603Z,28.17
2022-12-16T07:46:09.983Z,27.92
2022-12-16T07:48:55.385Z,27.70
2022-12-16T07:51:41.365Z,26.73
2022-12-16T07:54:26.634Z,28.67
2022-12-16T07:57:13.338Z,28.00
2022-12-16T07:59:58.836Z,28.38
2022-12-16T08:02:44.182Z,28.10
2022-12-16T08:05:29.309Z,27.23
2022-12-16T08:08:14.543Z,26.65
2022-12-16T08:10:59.825Z,28.45
2022-12-16T08:13:46.456Z,28.05
2022-12-16T08:16:31.741Z,28.20
2022-12-16T08:19:17.373Z,26.38
2022-12-16T08:22:02.480Z,25.85
2022-12-16T08:24:53.216Z,27.08
2022-12-16T08:27:38.824Z,18.80
2022-12-16T08:30:26.786Z,27.40
2022-12-16T08:33:18.962Z,26.60
2022-12-16T08:36:05.388Z,27.83
2022-12-16T08:38:50.679Z,26.70
2022-12-16T08:41:36.111Z,26.90
2022-12-16T08:44:21.315Z,27.65
2022-12-16T08:47:07.973Z,27.50
2022-12-16T08:49:57.672Z,28.13
2022-12-16T08:52:46.727Z,26.67
2022-12-16T08:55:32.090Z,26.65
2022-12-16T08:58:17.571Z,28.23
2022-12-16T09:01:07.071Z,27.83
2022-12-16T09:03:54.254Z,27.20
2022-12-16T09:06:40.961Z,27.60
2022-12-16T09:09:26.729Z,24.95
2022-12-16T09:12:12.106Z,27.77
2022-12-16T09:14:57.430Z,27.95
2022-12-16T09:17:42.905Z,27.85
2022-12-16T09:20:29.938Z,27.10
2022-12-16T09:23:15.146Z,26.05
2022-12-16T09:26:00.655Z,25.65
2022-12-16T09:28:45.729Z,23.92
2022-12-16T09:31:31.209Z,23.90
2022-12-16T09:34:16.395Z,24.90
2022-12-16T09:37:02.877Z,23.67
2022-12-16T09:39:48.507Z,23.90
2022-12-16T09:42:44.901Z,25.60
2022-12-16T09:45:37.090Z,24.75
2022-12-16T09:48:29.523Z,24.75
2022-12-16T09:51:20.761Z,24.90
2022-12-16T09:54:08.816Z,22.85
2022-12-16T09:56:55.655Z,24.30
2022-12-16T09:59:46.986Z,24.40
2022-12-16T10:02:34.904Z,24.98
2022-12-16T10:05:20.227Z,25.70
2022-12-16T10:08:21.139Z,26.70
2022-12-16T10:11:15.570Z,26.80
2022-12-16T10:14:07.550Z,26.45
2022-12-16T10:17:05.928Z,26.70
2022-12-16T10:20:04.639Z,27.73
2022-12-16T10:23:00.828Z,27.60
2022-12-16T10:25:50.663Z,27.63
2022-12-16T10:28:59.669Z,28.08
2022-12-16T10:31:45.982Z,28.60
2022-12-16T10:34:33.522Z,29.75
2022-12-16T10:37:21.297Z,28.23
2022-12-16T10:40:10.018Z,29.90
2022-12-16T10:43:00.323Z,31.98
2022-12-16T10:45:51.788Z,31.35
2022-12-16T10:48:50.252Z,31.50
2022-12-16T10:51:41.695Z,31.52
2022-12-16T10:54:47.408Z,30.90
2022-12-16T10:57:37.267Z,30.40
2022-12-16T11:00:31.277Z,30.33
2022-12-16T11:03:32.403Z,29.35
2022-12-16T11:06:19.536Z,30.50
2022-12-16T11:09:04.961Z,28.20
2022-12-16T11:11:50.115Z,28.13
2022-12-16T11:14:39.475Z,29.92
2022-12-16T11:17:36.877Z,29.38
2022-12-16T11:20:31.507Z,29.20
2022-12-16T11:23:26.958Z,30.73
2022-12-16T11:26:36.290Z,28.60
2022-12-16T11:29:31.294Z,29.73
2022-12-16T11:32:25.112Z,30.10
2022-12-16T11:35:14.264Z,28.45
2022-12-16T11:38:02.689Z,30.02
2022-12-16T11:40:45.465Z,30.52
2022-12-16T11:43:34.019Z,29.30
2022-12-16T11:46:23.617Z,29.35
2022-12-16T11:49:14.574Z,30.98
2022-12-16T11:52:28.029Z,32.03
2022-12-16T11:55:18.735Z,31.17
2022-12-16T11:58:11.755Z,28.90
2022-12-16T12:01:07.373Z,29.75
2022-12-16T12:04:02.449Z,31.25
2022-12-16T12:06:55.240Z,30.00
2022-12-16T12:09:44.634Z,28.85
2022-12-16T12:12:41.357Z,29.40
2022-12-16T12:15:37.361Z,29.30
2022-12-16T12:18:35.789Z,30.38
2022-12-16T12:21:28.818Z,29.23
2022-12-16T12:24:22.359Z,30.85
2022-12-16T12:27:15.835Z,30.13
2022-12-16T12:30:16.914Z,30.77
2022-12-16T12:33:11.326Z,30.40
2022-12-16T12:36:13.580Z,30.30
2022-12-16T12:39:12.505Z,30.20
2022-12-16T12:42:13.660Z,32.00
2022-12-16T12:45:12.760Z,31.13
2022-12-16T12:48:04.774Z,31.90
2022-12-16T12:50:56.669Z,32.15
2022-12-16T12:53:53.091Z,33.35
2022-12-16T12:56:49.428Z,32.30
2022-12-16T12:59:44.021Z,32.15
2022-12-16T13:02:36.685Z,33.03
2022-12-16T13:05:24.713Z,31.58
2022-12-16T13:08:10.084Z,31.15
2022-12-16T13:10:56.941Z,33.05
2022-12-16T13:14:06.377Z,33.95
2022-12-16T13:17:25.854Z,33.97
2022-12-16T13:20:35.952Z,33.10
2022-12-16T13:23:46.982Z,34.03
2022-12-16T13:26:34.553Z,33.70
2022-12-16T13:29:32.348Z,34.67
2022-12-16T13:32:21.691Z,35.88
2022-12-16T13:35:19.871Z,35.88
2022-12-16T13:38:11.074Z,35.13
2022-12-16T13:41:13.065Z,35.15
2022-12-16T13:44:07.284Z,34.22
2022-12-16T13:47:01.152Z,35.13
2022-12-16T13:50:06.383Z,34.78
2022-12-16T13:53:01.352Z,35.50
2022-12-16T13:55:49.680Z,35.78
2022-12-16T13:58:49.787Z,34.28
2022-12-16T14:01:41.060Z,36.10
2022-12-16T14:04:29.628Z,35.30
2022-12-16T14:07:24.435Z,36.25
2022-12-16T14:10:11.453Z,35.38
2022-12-16T14:13:11.132Z,36.08
2022-12-16T14:16:10.311Z,35.03
2022-12-16T14:19:03.703Z,36.00
2022-12-16T14:21:54.977Z,35.17
2022-12-16T14:24:44.232Z,36.08
2022-12-16T14:27:34.865Z,35.50
2022-12-16T14:30:22.235Z,36.83
2022-12-16T14:33:07.415Z,35.55
2022-12-16T14:35:52.885Z,37.03
2022-12-16T14:38:43.995Z,35.83
2022-12-16T14:41:33.124Z,36.45
2022-12-16T14:44:21.468Z,35.60
2022-12-16T14:47:10.147Z,37.50
2022-12-16T14:50:07.008Z,37.03
2022-12-16T14:52:52.285Z,34.70
2022-12-16T14:55:43.755Z,36.50
2022-12-16T14:58:30.983Z,36.60
2022-12-16T15:01:34.275Z,35.35
2022-12-16T15:04:22.916Z,35.97
2022-12-16T15:07:10.941Z,38.65
2022-12-16T15:10:00.348Z,38.13
2022-12-16T15:12:49.996Z,37.72
2022-12-16T15:15:43.758Z,37.40
2022-12-16T15:18:36.809Z,36.50
2022-12-16T15:21:22.662Z,34.33
2022-12-16T15:24:07.959Z,35.33
2022-12-16T15:26:54.403Z,34.63
2022-12-16T15:29:46.817Z,35.60
2022-12-16T15:32:46.684Z,36.17
2022-12-16T15:35:45.440Z,36.58
2022-12-16T15:38:36.415Z,34.28
2022-12-16T15:41:23.694Z,35.75
2022-12-16T15:44:10.073Z,35.88
2022-12-16T15:46:55.852Z,37.55
2022-12-16T15:49:47.403Z,34.95
2022-12-16T15:52:53.452Z,39.67
2022-12-16T15:55:50.328Z,39.78
2022-12-16T15:58:45.126Z,36.03
2022-12-16T16:01:32.568Z,34.75
2022-12-16T16:04:17.559Z,35.78
2022-12-16T16:07:06.290Z,34.92
2022-12-16T16:09:56.594Z,32.70
2022-12-16T16:12:44.465Z,32.35
2022-12-16T16:15:31.829Z,30.55
2022-12-16T16:18:19.863Z,30.90
2022-12-16T16:21:05.743Z,29.77
2022-12-16T16:23:51.122Z,30.75
2022-12-16T16:26:40.508Z,29.52
2022-12-16T16:29:25.911Z,29.50
2022-12-16T16:32:11.223Z,30.15
2022-12-16T16:34:56.498Z,29.83
2022-12-16T16:37:42.080Z,29.65
2022-12-16T16:40:37.092Z,28.73
2022-12-16T16:43:23.757Z,27.92
2022-12-16T16:46:13.042Z,31.58
2022-12-16T16:48:59.231Z,29.23
2022-12-16T16:51:44.626Z,29.42
2022-12-16T16:54:29.957Z,29.17
2022-12-16T16:57:15.418Z,31.98
2022-12-16T17:00:02.181Z,30.13
2022-12-16T17:02:47.480Z,30.98
2022-12-16T17:05:33.164Z,31.02
2022-12-16T17:08:18.460Z,32.00
2022-12-16T17:11:05.234Z,32.38
2022-12-16T17:13:50.443Z,32.00
2022-12-16T17:16:37.056Z,31.83
2022-12-16T17:19:22.659Z,31.83
2022-12-16T17:22:07.810Z,32.20
2022-12-16T17:24:54.507Z,31.88
2022-12-16T17:27:43.461Z,31.67
2022-12-16T17:30:34.452Z,32.40
2022-12-16T17:33:20.949Z,31.05
2022-12-16T17:36:07.250Z,31.73
2022-12-16T17:39:07.273Z,30.83
2022-12-16T17:41:53.054Z,32.08
2022-12-16T17:44:38.440Z,31.92
2022-12-16T17:47:23.661Z,31.77
2022-12-16T17:50:10.197Z,31.08
2022-12-16T17:52:55.570Z,31.05
2022-12-16T17:55:40.799Z,30.42
2022-12-16T17:58:26.200Z,29.98
2022-12-16T18:01:11.432Z,28.52
2022-12-16T18:03:56.833Z,29.13
2022-12-16T18:06:43.784Z,27.75
2022-12-16T18:09:29.000Z,27.77
2022-12-16T18:12:14.368Z,27.77
2022-12-16T18:14:59.521Z,27.88
2022-12-16T18:17:44.995Z,30.50
2022-12-16T18:20:30.203Z,27.42
2022-12-16T18:23:16.878Z,27.92
2022-12-16T18:26:02.147Z,26.20
2022-12-16T18:28:55.354Z,25.83
2022-12-16T18:31:40.634Z,26.00
2022-12-16T18:34:26.026Z,26.95
2022-12-16T18:37:11.275Z,25.38
2022-12-16T18:39:57.916Z,25.80
2022-12-16T18:42:43.271Z,24.40
2022-12-16T18:45:28.745Z,25.27
2022-12-16T18:48:13.986Z,26.38
2022-12-16T18:50:59.437Z,25.35
2022-12-16T18:53:44.791Z,26.05
2022-12-16T18:56:31.563Z,25.83
2022-12-16T18:59:17.268Z,25.38
2022-12-16T19:02:02.782Z,25.45
2022-12-16T19:04:47.941Z,23.65
2022-12-16T19:07:34.125Z,25.70
2022-12-16T19:10:19.601Z,26.05
2022-12-16T19:13:06.363Z,24.13
2022-12-16T19:15:52.935Z,23.70
2022-12-16T19:18:38.273Z,23.92
2022-12-16T19:21:31.924Z,25.33
2022-12-16T19:24:13.617Z,26.13
2022-12-16T19:26:59.126Z,23.55
2022-12-16T19:29:45.660Z,24.88
2022-12-16T19:32:30.975Z,24.77
2022-12-16T19:35:16.349Z,27.13
2022-12-16T19:38:01.629Z,26.05
2022-12-16T19:40:46.807Z,23.38
2022-12-16T19:43:31.955Z,23.27
2022-12-16T19:46:18.654Z,23.73
2022-12-16T19:49:03.696Z,22.23
2022-12-16T19:51:48.949Z,23.02
2022-12-16T19:54:34.139Z,22.50
2022-12-16T19:57:15.863Z,22.25
2022-12-16T20:00:01.323Z,22.77
2022-12-16T20:02:48.113Z,21.98
2022-12-16T20:05:33.594Z,22.85
2022-12-16T20:08:18.866Z,21.73
2022-12-16T20:11:04.233Z,22.63
2022-12-16T20:13:49.782Z,22.42
2022-12-16T20:16:35.045Z,21.30
2022-12-16T20:19:21.547Z,20.60
2022-12-16T20:22:10.660Z,20.38
2022-12-16T20:24:56.993Z,20.98
2022-12-16T20:27:42.311Z,21.02
2022-12-16T20:30:28.838Z,20.25
2022-12-16T20:33:13.783Z,17.27
2022-12-16T20:36:00.433Z,18.40
2022-12-16T20:38:45.604Z,17.42
2022-12-16T20:41:30.975Z,18.33
2022-12-16T20:44:16.227Z,18.20
2022-12-16T20:47:01.431Z,18.15
2022-12-16T20:49:46.882Z,18.30
2022-12-16T20:52:33.136Z,17.55
2022-12-16T20:55:20.493Z,17.27
2022-12-16T20:58:06.009Z,16.88
2022-12-16T21:00:51.277Z,15.93
2022-12-16T21:03:37.410Z,15.65
2022-12-16T21:06:23.139Z,16.38
2022-12-16T21:09:09.659Z,14.77
2022-12-16T21:11:56.295Z,14.93
2022-12-16T21:14:41.667Z,14.15
2022-12-16T21:17:27.004Z,12.80
2022-12-16T21:20:11.632Z,13.65
2022-12-16T21:22:56.834Z,12.43
2022-12-16T21:25:58.166Z,12.48
2022-12-16T21:28:43.356Z,12.18
2022-12-16T21:31:28.940Z,11.85
2022-12-16T21:34:14.186Z,12.35
2022-12-16T21:36:59.462Z,11.88
2022-12-16T21:39:44.924Z,11.50
2022-12-16T21:42:35.395Z,12.60
2022-12-16T21:45:22.303Z,12.02
2022-12-16T21:48:11.618Z,11.15
2022-12-16T21:50:56.961Z,10.48
2022-12-16T21:53:42.690Z,11.18
2022-12-16T21:56:28.427Z,11.45
2022-12-16T21:59:15.260Z,11.65
2022-12-16T22:02:00.728Z,12.02
2022-12-16T22:04:46.032Z,12.07
2022-12-16T22:07:31.296Z,11.38
2022-12-16T22:10:16.573Z,10.85
2022-12-16T22:13:01.874Z,10.60
2022-12-16T22:15:48.485Z,11.05
2022-12-16T22:18:35.304Z,10.95
2022-12-16T22:21:22.158Z,11.48
2022-12-16T22:24:07.742Z,11.65
2022-12-16T22:26:53.385Z,14.43
2022-12-16T22:29:38.967Z,12.30
2022-12-16T22:32:25.585Z,11.80
2022-12-16T22:35:10.933Z,12.65
2022-12-16T22:37:56.259Z,12.65
2022-12-16T22:40:41.544Z,11.68
2022-12-16T22:43:26.719Z,10.57
2022-12-16T22:46:17.069Z,10.77
2022-12-16T22:49:04.146Z,11.48
2022-12-16T22:51:49.414Z,10.60
2022-12-16T22:54:34.980Z,11.10
2022-12-16T22:57:20.420Z,10.80
2022-12-16T23:00:05.800Z,11.45
2022-12-16T23:02:51.221Z,12.13
2022-12-16T23:05:38.332Z,11.93
2022-12-16T23:08:24.102Z,12.18
2022-12-16T23:11:13.120Z,12.23
2022-12-16T23:13:58.434Z,11.88
2022-12-16T23:16:43.792Z,10.88
2022-12-16T23:19:29.293Z,11.68
2022-12-16T23:22:15.672Z,11.65
2022-12-16T23:25:00.942Z,12.45
2022-12-16T23:27:46.284Z,12.18
2022-12-16T23:30:31.572Z,12.32
2022-12-16T23:33:16.952Z,12.30
2022-12-16T23:36:02.211Z,13.38
2022-12-16T23:38:49.347Z,13.63
2022-12-16T23:41:34.585Z,12.77
2022-12-16T23:44:19.898Z,13.38
2022-12-16T23:47:05.178Z,12.77
2022-12-16T23:49:50.542Z,12.98
2022-12-16T23:52:35.854Z,12.80
2022-12-16T23:55:23.081Z,12.95
2022-12-16T23:58:16.536Z,13.60
